sensor_id;sensor_type;location;lat;lon;timestamp;P1;durP1;ratioP1;P2;durP2;ratioP2
37280;SDS011;23169;41.804;12.596;2023-03-16T11:27:50;3.20;;;1.83;;
37280;SDS011;23169;41.804;12.596;2023-03-16T11:30:57;5.45;;;1.95;;
37280;SDS011;23169;41.804;12.596;2023-03-16T11:33:30;5.45;;;2.17;;
37280;SDS011;23169;41.804;12.596;2023-03-16T11:41:30;4.68;;;2.35;;
37280;SDS011;23169;41.804;12.596;2023-03-16T11:44:27;26.27;;;11.48;;
37280;SDS011;23169;41.804;12.596;2023-03-16T11:47:04;11.98;;;5.18;;
37280;SDS011;23169;41.804;12.596;2023-03-16T11:50:00;9.55;;;3.67;;
37280;SDS011;23169;41.804;12.596;2023-03-16T11:52:54;7.13;;;2.63;;
37280;SDS011;23169;41.804;12.596;2023-03-16T11:56:02;4.40;;;1.95;;
37280;SDS011;23169;41.804;12.596;2023-03-16T12:08:01;7.80;;;2.50;;
37280;SDS011;23169;41.804;12.596;2023-03-16T12:10:40;3.70;;;2.17;;
37280;SDS011;23169;41.804;12.596;2023-03-16T12:16:10;5.25;;;2.53;;
37280;SDS011;23169;41.804;12.596;2023-03-16T12:19:02;5.53;;;2.22;;
37280;SDS011;23169;41.804;12.596;2023-03-16T12:21:38;19.55;;;7.95;;
37280;SDS011;23169;41.804;12.596;2023-03-16T12:24:13;8.30;;;3.25;;
37280;SDS011;23169;41.804;12.596;2023-03-16T12:26:45;10.23;;;3.72;;
37280;SDS011;23169;41.804;12.596;2023-03-16T12:32:24;7.03;;;3.17;;
37280;SDS011;23169;41.804;12.596;2023-03-16T12:40:54;7.32;;;3.55;;
37280;SDS011;23169;41.804;12.596;2023-03-16T12:46:13;5.55;;;2.65;;
37280;SDS011;23169;41.804;12.596;2023-03-16T12:48:58;4.60;;;2.15;;
37280;SDS011;23169;41.804;12.596;2023-03-16T12:54:01;4.85;;;2.60;;
37280;SDS011;23169;41.804;12.596;2023-03-16T12:56:33;4.60;;;1.80;;
37280;SDS011;23169;41.804;12.596;2023-03-16T12:59:15;6.70;;;2.10;;
37280;SDS011;23169;41.804;12.596;2023-03-16T13:02:08;3.35;;;2.30;;
37280;SDS011;23169;41.804;12.596;2023-03-16T13:04:47;3.45;;;1.85;;
37280;SDS011;23169;41.804;12.596;2023-03-16T13:07:23;5.85;;;2.33;;
37280;SDS011;23169;41.804;12.596;2023-03-16T13:10:12;4.88;;;2.00;;
37280;SDS011;23169;41.804;12.596;2023-03-16T13:12:43;5.22;;;2.33;;
37280;SDS011;23169;41.804;12.596;2023-03-16T13:17:48;3.83;;;1.80;;
37280;SDS011;23169;41.804;12.596;2023-03-16T13:20:31;6.72;;;3.55;;
37280;SDS011;23169;41.804;12.596;2023-03-16T13:28:34;2.75;;;1.73;;
37280;SDS011;23169;41.804;12.596;2023-03-16T13:31:05;4.88;;;2.20;;
37280;SDS011;23169;41.804;12.596;2023-03-16T13:33:46;4.45;;;2.17;;
37280;SDS011;23169;41.804;12.596;2023-03-16T13:36:18;5.53;;;1.77;;
37280;SDS011;23169;41.804;12.596;2023-03-16T13:39:05;5.00;;;1.70;;
37280;SDS011;23169;41.804;12.596;2023-03-16T13:41:34;3.65;;;1.83;;
37280;SDS011;23169;41.804;12.596;2023-03-16T13:44:03;3.88;;;1.90;;
37280;SDS011;23169;41.804;12.596;2023-03-16T13:46:32;4.13;;;1.85;;
37280;SDS011;23169;41.804;12.596;2023-03-16T13:49:01;3.90;;;1.55;;
37280;SDS011;23169;41.804;12.596;2023-03-16T13:51:32;4.85;;;1.85;;
37280;SDS011;23169;41.804;12.596;2023-03-16T13:54:04;7.03;;;2.63;;
37280;SDS011;23169;41.804;12.596;2023-03-16T13:56:44;8.73;;;2.15;;
37280;SDS011;23169;41.804;12.596;2023-03-16T13:59:12;4.93;;;1.70;;
37280;SDS011;23169;41.804;12.596;2023-03-16T14:01:42;5.65;;;2.00;;
37280;SDS011;23169;41.804;12.596;2023-03-16T14:04:12;6.72;;;2.00;;
37280;SDS011;23169;41.804;12.596;2023-03-16T14:06:52;5.72;;;2.05;;
37280;SDS011;23169;41.804;12.596;2023-03-16T14:09:34;5.20;;;1.80;;
37280;SDS011;23169;41.804;12.596;2023-03-16T14:12:02;3.72;;;2.00;;
37280;SDS011;23169;41.804;12.596;2023-03-16T14:14:38;3.78;;;1.77;;
37280;SDS011;23169;41.804;12.596;2023-03-16T14:17:09;4.40;;;1.33;;
37280;SDS011;23169;41.804;12.596;2023-03-16T14:19:50;2.70;;;1.48;;
37280;SDS011;23169;41.804;12.596;2023-03-16T14:22:24;1.80;;;1.40;;
37280;SDS011;23169;41.804;12.596;2023-03-16T14:25:01;3.35;;;1.60;;
37280;SDS011;23169;41.804;12.596;2023-03-16T14:30:20;3.53;;;1.77;;
37280;SDS011;23169;41.804;12.596;2023-03-16T14:38:21;4.35;;;1.38;;
37280;SDS011;23169;41.804;12.596;2023-03-16T14:43:35;3.92;;;1.40;;
37280;SDS011;23169;41.804;12.596;2023-03-16T14:46:10;3.53;;;1.50;;
37280;SDS011;23169;41.804;12.596;2023-03-16T14:48:42;3.88;;;1.30;;
37280;SDS011;23169;41.804;12.596;2023-03-16T14:51:12;3.90;;;1.95;;
37280;SDS011;23169;41.804;12.596;2023-03-16T14:53:41;5.63;;;1.77;;
37280;SDS011;23169;41.804;12.596;2023-03-16T14:56:10;7.53;;;1.75;;
37280;SDS011;23169;41.804;12.596;2023-03-16T14:58:40;3.53;;;1.63;;
37280;SDS011;23169;41.804;12.596;2023-03-16T15:01:13;7.82;;;1.48;;
37280;SDS011;23169;41.804;12.596;2023-03-16T15:03:44;3.35;;;1.60;;
37280;SDS011;23169;41.804;12.596;2023-03-16T15:06:13;3.80;;;1.58;;
37280;SDS011;23169;41.804;12.596;2023-03-16T15:08:43;6.93;;;1.73;;
37280;SDS011;23169;41.804;12.596;2023-03-16T15:11:13;7.72;;;1.80;;
37280;SDS011;23169;41.804;12.596;2023-03-16T15:13:47;4.50;;;1.40;;
37280;SDS011;23169;41.804;12.596;2023-03-16T15:16:16;2.75;;;1.25;;
37280;SDS011;23169;41.804;12.596;2023-03-16T15:18:46;4.15;;;1.13;;
37280;SDS011;23169;41.804;12.596;2023-03-16T15:21:16;3.72;;;1.30;;
37280;SDS011;23169;41.804;12.596;2023-03-16T15:23:47;6.22;;;1.65;;
37280;SDS011;23169;41.804;12.596;2023-03-16T15:26:18;7.60;;;2.00;;
37280;SDS011;23169;41.804;12.596;2023-03-16T15:28:53;4.50;;;1.60;;
37280;SDS011;23169;41.804;12.596;2023-03-16T15:31:23;3.38;;;1.45;;
37280;SDS011;23169;41.804;12.596;2023-03-16T15:33:52;2.25;;;1.17;;
37280;SDS011;23169;41.804;12.596;2023-03-16T15:36:20;5.13;;;1.50;;
37280;SDS011;23169;41.804;12.596;2023-03-16T15:38:52;3.67;;;1.20;;
37280;SDS011;23169;41.804;12.596;2023-03-16T15:41:21;4.57;;;1.60;;
37280;SDS011;23169;41.804;12.596;2023-03-16T15:43:50;6.38;;;1.33;;
37280;SDS011;23169;41.804;12.596;2023-03-16T15:46:19;2.30;;;1.52;;
37280;SDS011;23169;41.804;12.596;2023-03-16T15:48:48;6.68;;;1.50;;
37280;SDS011;23169;41.804;12.596;2023-03-16T15:51:20;7.72;;;1.85;;
37280;SDS011;23169;41.804;12.596;2023-03-16T15:53:53;9.30;;;2.80;;
37280;SDS011;23169;41.804;12.596;2023-03-16T15:56:27;4.25;;;1.52;;
37280;SDS011;23169;41.804;12.596;2023-03-16T15:58:59;3.17;;;1.50;;
37280;SDS011;23169;41.804;12.596;2023-03-16T16:01:31;5.25;;;2.00;;
37280;SDS011;23169;41.804;12.596;2023-03-16T16:04:08;7.10;;;1.98;;
37280;SDS011;23169;41.804;12.596;2023-03-16T16:06:43;6.95;;;1.77;;
37280;SDS011;23169;41.804;12.596;2023-03-16T16:09:13;5.57;;;1.73;;
37280;SDS011;23169;41.804;12.596;2023-03-16T16:11:42;2.58;;;1.83;;
37280;SDS011;23169;41.804;12.596;2023-03-16T16:14:14;5.78;;;2.10;;
37280;SDS011;23169;41.804;12.596;2023-03-16T16:16:44;2.53;;;1.40;;
37280;SDS011;23169;41.804;12.596;2023-03-16T16:19:13;4.43;;;1.98;;
37280;SDS011;23169;41.804;12.596;2023-03-16T16:21:42;4.75;;;1.70;;
37280;SDS011;23169;41.804;12.596;2023-03-16T16:24:11;3.65;;;1.92;;
37280;SDS011;23169;41.804;12.596;2023-03-16T16:26:40;4.85;;;1.80;;
37280;SDS011;23169;41.804;12.596;2023-03-16T16:29:19;4.45;;;1.85;;
37280;SDS011;23169;41.804;12.596;2023-03-16T16:31:51;3.17;;;1.70;;
37280;SDS011;23169;41.804;12.596;2023-03-16T16:34:20;4.15;;;1.83;;
37280;SDS011;23169;41.804;12.596;2023-03-16T16:36:52;3.53;;;1.67;;
37280;SDS011;23169;41.804;12.596;2023-03-16T16:39:24;4.32;;;1.95;;
37280;SDS011;23169;41.804;12.596;2023-03-16T16:41:52;8.65;;;2.50;;
37280;SDS011;23169;41.804;12.596;2023-03-16T16:44:24;8.77;;;1.75;;
37280;SDS011;23169;41.804;12.596;2023-03-16T16:46:55;5.10;;;1.90;;
37280;SDS011;23169;41.804;12.596;2023-03-16T16:49:27;7.22;;;2.58;;
37280;SDS011;23169;41.804;12.596;2023-03-16T16:51:58;8.40;;;3.15;;
37280;SDS011;23169;41.804;12.596;2023-03-16T16:54:30;10.35;;;4.03;;
37280;SDS011;23169;41.804;12.596;2023-03-16T16:56:59;9.57;;;3.08;;
37280;SDS011;23169;41.804;12.596;2023-03-16T16:59:30;6.90;;;2.20;;
37280;SDS011;23169;41.804;12.596;2023-03-16T17:02:00;6.10;;;1.95;;
37280;SDS011;23169;41.804;12.596;2023-03-16T17:04:33;5.53;;;2.33;;
37280;SDS011;23169;41.804;12.596;2023-03-16T17:07:04;6.40;;;2.20;;
37280;SDS011;23169;41.804;12.596;2023-03-16T17:09:35;7.55;;;2.42;;
37280;SDS011;23169;41.804;12.596;2023-03-16T17:12:05;5.10;;;2.40;;
37280;SDS011;23169;41.804;12.596;2023-03-16T17:14:38;9.88;;;2.90;;
37280;SDS011;23169;41.804;12.596;2023-03-16T17:17:11;6.30;;;2.50;;
37280;SDS011;23169;41.804;12.596;2023-03-16T17:19:44;4.30;;;2.58;;
37280;SDS011;23169;41.804;12.596;2023-03-16T17:22:25;7.28;;;2.95;;
37280;SDS011;23169;41.804;12.596;2023-03-16T17:24:55;8.20;;;2.75;;
37280;SDS011;23169;41.804;12.596;2023-03-16T17:27:25;5.50;;;2.95;;
37280;SDS011;23169;41.804;12.596;2023-03-16T17:29:56;10.00;;;3.20;;
37280;SDS011;23169;41.804;12.596;2023-03-16T17:32:25;7.15;;;3.33;;
37280;SDS011;23169;41.804;12.596;2023-03-16T17:34:53;12.05;;;3.03;;
37280;SDS011;23169;41.804;12.596;2023-03-16T17:37:22;6.50;;;3.55;;
37280;SDS011;23169;41.804;12.596;2023-03-16T17:39:50;7.43;;;3.80;;
37280;SDS011;23169;41.804;12.596;2023-03-16T17:42:20;7.35;;;3.40;;
37280;SDS011;23169;41.804;12.596;2023-03-16T17:44:51;10.68;;;3.88;;
37280;SDS011;23169;41.804;12.596;2023-03-16T17:47:21;11.35;;;3.90;;
37280;SDS011;23169;41.804;12.596;2023-03-16T17:49:52;6.05;;;3.25;;
37280;SDS011;23169;41.804;12.596;2023-03-16T17:52:21;9.52;;;3.25;;
37280;SDS011;23169;41.804;12.596;2023-03-16T17:54:52;7.93;;;2.95;;
37280;SDS011;23169;41.804;12.596;2023-03-16T17:57:27;8.90;;;2.95;;
37280;SDS011;23169;41.804;12.596;2023-03-16T17:59:57;8.07;;;3.50;;
37280;SDS011;23169;41.804;12.596;2023-03-16T18:05:17;7.78;;;3.40;;
37280;SDS011;23169;41.804;12.596;2023-03-16T18:08:14;4.50;;;2.90;;
37280;SDS011;23169;41.804;12.596;2023-03-16T18:10:57;8.00;;;2.63;;
37280;SDS011;23169;41.804;12.596;2023-03-16T18:13:29;10.73;;;3.35;;
37280;SDS011;23169;41.804;12.596;2023-03-16T18:16:01;7.88;;;2.95;;
37280;SDS011;23169;41.804;12.596;2023-03-16T18:18:36;5.50;;;3.03;;
37280;SDS011;23169;41.804;12.596;2023-03-16T18:21:06;8.90;;;4.03;;
37280;SDS011;23169;41.804;12.596;2023-03-16T18:23:43;7.30;;;3.35;;
37280;SDS011;23169;41.804;12.596;2023-03-16T18:26:12;8.38;;;2.97;;
37280;SDS011;23169;41.804;12.596;2023-03-16T18:28:41;4.95;;;2.75;;
37280;SDS011;23169;41.804;12.596;2023-03-16T18:31:17;13.07;;;4.57;;
37280;SDS011;23169;41.804;12.596;2023-03-16T18:33:49;8.77;;;3.42;;
37280;SDS011;23169;41.804;12.596;2023-03-16T18:36:25;5.55;;;2.83;;
37280;SDS011;23169;41.804;12.596;2023-03-16T18:38:57;9.70;;;4.15;;
37280;SDS011;23169;41.804;12.596;2023-03-16T18:41:28;8.48;;;3.20;;
37280;SDS011;23169;41.804;12.596;2023-03-16T18:44:10;7.03;;;3.05;;
37280;SDS011;23169;41.804;12.596;2023-03-16T18:46:47;12.63;;;3.80;;
37280;SDS011;23169;41.804;12.596;2023-03-16T18:49:18;11.45;;;3.58;;
37280;SDS011;23169;41.804;12.596;2023-03-16T18:51:50;7.55;;;3.22;;
37280;SDS011;23169;41.804;12.596;2023-03-16T18:56:53;6.55;;;3.13;;
37280;SDS011;23169;41.804;12.596;2023-03-16T18:59:21;9.63;;;4.10;;
37280;SDS011;23169;41.804;12.596;2023-03-16T19:01:50;13.32;;;4.82;;
37280;SDS011;23169;41.804;12.596;2023-03-16T19:06:51;15.95;;;6.47;;
37280;SDS011;23169;41.804;12.596;2023-03-16T19:09:23;12.05;;;5.20;;
37280;SDS011;23169;41.804;12.596;2023-03-16T19:11:54;13.68;;;4.38;;
37280;SDS011;23169;41.804;12.596;2023-03-16T19:14:24;11.40;;;3.85;;
37280;SDS011;23169;41.804;12.596;2023-03-16T19:16:53;9.80;;;3.53;;
37280;SDS011;23169;41.804;12.596;2023-03-16T19:19:23;9.15;;;4.10;;
37280;SDS011;23169;41.804;12.596;2023-03-16T19:21:52;6.55;;;3.33;;
37280;SDS011;23169;41.804;12.596;2023-03-16T19:24:27;14.38;;;3.58;;
37280;SDS011;23169;41.804;12.596;2023-03-16T19:29:32;4.75;;;3.70;;
37280;SDS011;23169;41.804;12.596;2023-03-16T19:32:02;7.68;;;3.25;;
37280;SDS011;23169;41.804;12.596;2023-03-16T19:34:31;10.73;;;3.92;;
37280;SDS011;23169;41.804;12.596;2023-03-16T19:36:59;8.50;;;3.33;;
37280;SDS011;23169;41.804;12.596;2023-03-16T19:39:28;7.00;;;3.50;;
37280;SDS011;23169;41.804;12.596;2023-03-16T19:41:57;6.45;;;3.50;;
37280;SDS011;23169;41.804;12.596;2023-03-16T19:44:30;7.05;;;3.30;;
37280;SDS011;23169;41.804;12.596;2023-03-16T19:46:59;8.48;;;3.40;;
37280;SDS011;23169;41.804;12.596;2023-03-16T19:49:31;6.80;;;3.00;;
37280;SDS011;23169;41.804;12.596;2023-03-16T19:52:00;6.00;;;2.90;;
37280;SDS011;23169;41.804;12.596;2023-03-16T19:54:30;12.20;;;3.60;;
37280;SDS011;23169;41.804;12.596;2023-03-16T19:57:03;6.57;;;2.70;;
37280;SDS011;23169;41.804;12.596;2023-03-16T19:59:38;5.95;;;3.38;;
37280;SDS011;23169;41.804;12.596;2023-03-16T20:02:21;7.70;;;3.20;;
37280;SDS011;23169;41.804;12.596;2023-03-16T20:04:53;8.05;;;3.53;;
37280;SDS011;23169;41.804;12.596;2023-03-16T20:07:24;5.80;;;3.58;;
37280;SDS011;23169;41.804;12.596;2023-03-16T20:09:52;8.20;;;3.25;;
37280;SDS011;23169;41.804;12.596;2023-03-16T20:12:23;5.03;;;3.17;;
37280;SDS011;23169;41.804;12.596;2023-03-16T20:14:53;7.93;;;3.40;;
37280;SDS011;23169;41.804;12.596;2023-03-16T20:17:24;8.02;;;3.55;;
37280;SDS011;23169;41.804;12.596;2023-03-16T20:19:56;7.60;;;3.70;;
37280;SDS011;23169;41.804;12.596;2023-03-16T20:22:25;6.53;;;3.28;;
37280;SDS011;23169;41.804;12.596;2023-03-16T20:24:55;6.90;;;3.05;;
37280;SDS011;23169;41.804;12.596;2023-03-16T20:27:26;6.30;;;3.40;;
37280;SDS011;23169;41.804;12.596;2023-03-16T20:29:55;6.63;;;3.45;;
37280;SDS011;23169;41.804;12.596;2023-03-16T20:32:24;8.90;;;3.70;;
37280;SDS011;23169;41.804;12.596;2023-03-16T20:34:59;8.10;;;4.13;;
37280;SDS011;23169;41.804;12.596;2023-03-16T20:37:28;8.90;;;3.88;;
37280;SDS011;23169;41.804;12.596;2023-03-16T20:39:58;7.50;;;3.63;;
37280;SDS011;23169;41.804;12.596;2023-03-16T20:42:31;7.35;;;3.95;;
37280;SDS011;23169;41.804;12.596;2023-03-16T20:45:01;8.73;;;3.78;;
37280;SDS011;23169;41.804;12.596;2023-03-16T20:47:35;7.00;;;3.75;;
37280;SDS011;23169;41.804;12.596;2023-03-16T20:50:04;7.80;;;3.80;;
37280;SDS011;23169;41.804;12.596;2023-03-16T20:52:34;6.50;;;3.35;;
37280;SDS011;23169;41.804;12.596;2023-03-16T20:55:03;7.93;;;3.85;;
37280;SDS011;23169;41.804;12.596;2023-03-16T20:57:31;8.77;;;3.80;;
37280;SDS011;23169;41.804;12.596;2023-03-16T21:00:00;8.77;;;3.33;;
37280;SDS011;23169;41.804;12.596;2023-03-16T21:02:31;6.57;;;3.60;;
37280;SDS011;23169;41.804;12.596;2023-03-16T21:05:03;5.53;;;3.42;;
37280;SDS011;23169;41.804;12.596;2023-03-16T21:07:33;7.35;;;3.55;;
37280;SDS011;23169;41.804;12.596;2023-03-16T21:10:01;9.55;;;4.00;;
37280;SDS011;23169;41.804;12.596;2023-03-16T21:12:32;9.55;;;4.85;;
37280;SDS011;23169;41.804;12.596;2023-03-16T21:15:04;12.95;;;4.88;;
37280;SDS011;23169;41.804;12.596;2023-03-16T21:17:42;13.02;;;6.07;;
37280;SDS011;23169;41.804;12.596;2023-03-16T21:20:17;12.57;;;5.93;;
37280;SDS011;23169;41.804;12.596;2023-03-16T21:22:46;13.23;;;5.90;;
37280;SDS011;23169;41.804;12.596;2023-03-16T21:25:22;18.02;;;6.30;;
37280;SDS011;23169;41.804;12.596;2023-03-16T21:27:54;13.80;;;6.38;;
37280;SDS011;23169;41.804;12.596;2023-03-16T21:30:29;12.93;;;5.65;;
37280;SDS011;23169;41.804;12.596;2023-03-16T21:32:58;16.23;;;6.50;;
37280;SDS011;23169;41.804;12.596;2023-03-16T21:35:32;19.08;;;7.03;;
37280;SDS011;23169;41.804;12.596;2023-03-16T21:38:14;18.20;;;6.82;;
37280;SDS011;23169;41.804;12.596;2023-03-16T21:40:46;17.17;;;6.40;;
37280;SDS011;23169;41.804;12.596;2023-03-16T21:43:15;16.85;;;6.20;;
37280;SDS011;23169;41.804;12.596;2023-03-16T21:45:44;15.40;;;5.85;;
37280;SDS011;23169;41.804;12.596;2023-03-16T21:48:15;14.95;;;5.60;;
37280;SDS011;23169;41.804;12.596;2023-03-16T21:50:48;12.85;;;5.28;;
37280;SDS011;23169;41.804;12.596;2023-03-16T21:53:25;10.05;;;5.00;;
37280;SDS011;23169;41.804;12.596;2023-03-16T21:55:56;12.63;;;4.88;;
37280;SDS011;23169;41.804;12.596;2023-03-16T21:58:27;11.98;;;4.53;;
37280;SDS011;23169;41.804;12.596;2023-03-16T22:00:55;9.00;;;4.55;;
37280;SDS011;23169;41.804;12.596;2023-03-16T22:03:29;11.63;;;4.45;;
37280;SDS011;23169;41.804;12.596;2023-03-16T22:06:02;10.38;;;3.72;;
37280;SDS011;23169;41.804;12.596;2023-03-16T22:08:34;11.70;;;4.40;;
37280;SDS011;23169;41.804;12.596;2023-03-16T22:11:04;10.48;;;4.53;;
37280;SDS011;23169;41.804;12.596;2023-03-16T22:13:47;8.07;;;4.03;;
37280;SDS011;23169;41.804;12.596;2023-03-16T22:16:20;8.18;;;4.07;;
37280;SDS011;23169;41.804;12.596;2023-03-16T22:18:50;6.78;;;4.15;;
37280;SDS011;23169;41.804;12.596;2023-03-16T22:23:54;9.48;;;3.85;;
37280;SDS011;23169;41.804;12.596;2023-03-16T22:26:24;9.27;;;4.15;;
37280;SDS011;23169;41.804;12.596;2023-03-16T22:28:53;8.80;;;4.13;;
37280;SDS011;23169;41.804;12.596;2023-03-16T22:31:25;12.27;;;4.35;;
37280;SDS011;23169;41.804;12.596;2023-03-16T22:33:56;8.48;;;3.83;;
37280;SDS011;23169;41.804;12.596;2023-03-16T22:36:24;10.95;;;4.18;;
37280;SDS011;23169;41.804;12.596;2023-03-16T22:38:56;8.68;;;4.15;;
37280;SDS011;23169;41.804;12.596;2023-03-16T22:41:28;8.98;;;4.60;;
37280;SDS011;23169;41.804;12.596;2023-03-16T22:43:56;10.20;;;4.35;;
37280;SDS011;23169;41.804;12.596;2023-03-16T22:46:27;9.82;;;4.38;;
37280;SDS011;23169;41.804;12.596;2023-03-16T22:48:56;11.68;;;5.10;;
37280;SDS011;23169;41.804;12.596;2023-03-16T22:51:28;12.52;;;4.75;;
37280;SDS011;23169;41.804;12.596;2023-03-16T22:54:00;9.07;;;3.92;;
37280;SDS011;23169;41.804;12.596;2023-03-16T22:56:32;10.40;;;4.68;;
37280;SDS011;23169;41.804;12.596;2023-03-16T22:59:03;10.98;;;4.65;;
37280;SDS011;23169;41.804;12.596;2023-03-16T23:04:20;8.73;;;4.65;;
37280;SDS011;23169;41.804;12.596;2023-03-16T23:06:51;11.20;;;4.95;;
37280;SDS011;23169;41.804;12.596;2023-03-16T23:09:20;11.07;;;4.60;;
37280;SDS011;23169;41.804;12.596;2023-03-16T23:11:48;13.75;;;4.60;;
37280;SDS011;23169;41.804;12.596;2023-03-16T23:14:19;9.88;;;4.63;;
37280;SDS011;23169;41.804;12.596;2023-03-16T23:16:48;10.48;;;4.50;;
37280;SDS011;23169;41.804;12.596;2023-03-16T23:19:20;11.65;;;4.65;;
37280;SDS011;23169;41.804;12.596;2023-03-16T23:21:54;11.52;;;4.50;;
37280;SDS011;23169;41.804;12.596;2023-03-16T23:24:23;7.20;;;4.28;;
37280;SDS011;23169;41.804;12.596;2023-03-16T23:29:21;11.52;;;4.65;;
37280;SDS011;23169;41.804;12.596;2023-03-16T23:31:49;11.05;;;4.43;;
37280;SDS011;23169;41.804;12.596;2023-03-16T23:34:18;10.93;;;4.57;;
37280;SDS011;23169;41.804;12.596;2023-03-16T23:36:49;13.27;;;4.97;;
37280;SDS011;23169;41.804;12.596;2023-03-16T23:39:17;9.35;;;4.53;;
37280;SDS011;23169;41.804;12.596;2023-03-16T23:41:45;12.48;;;5.10;;
37280;SDS011;23169;41.804;12.596;2023-03-16T23:44:16;11.45;;;5.75;;
37280;SDS011;23169;41.804;12.596;2023-03-16T23:46:46;13.75;;;5.18;;
37280;SDS011;23169;41.804;12.596;2023-03-16T23:49:16;12.60;;;5.57;;
37280;SDS011;23169;41.804;12.596;2023-03-16T23:51:49;13.52;;;5.90;;
37280;SDS011;23169;41.804;12.596;2023-03-16T23:54:22;10.13;;;5.85;;
37280;SDS011;23169;41.804;12.596;2023-03-16T23:56:51;15.80;;;5.72;;
37280;SDS011;23169;41.804;12.596;2023-03-16T23:59:18;12.10;;;5.60;;
